createdAt,value
2023-01-29T00:00:19.273Z,99341.88
2023-01-29T00:02:47.860Z,99351.19
2023-01-29T00:05:27.534Z,99361.31
2023-01-29T00:07:56.796Z,99348.59
2023-01-29T00:10:27.189Z,99350.28
2023-01-29T00:12:55.767Z,99363.78
2023-01-29T00:15:24.292Z,99349.38
2023-01-29T00:17:52.581Z,99352.78
2023-01-29T00:20:21.005Z,99344.34
2023-01-29T00:22:49.488Z,99343.50
2023-01-29T00:25:18.090Z,99350.28
2023-01-29T00:27:47.886Z,99351.13
2023-01-29T00:30:19.612Z,99358.78
2023-01-29T00:32:48.703Z,99346.09
2023-01-29T00:35:17.247Z,99349.47
2023-01-29T00:37:45.944Z,99353.69
2023-01-29T00:40:15.415Z,99339.31
2023-01-29T00:43:04.970Z,99343.56
2023-01-29T00:45:34.074Z,99347.75
2023-01-29T00:48:02.583Z,99344.38
2023-01-29T00:50:31.650Z,99349.44
2023-01-29T00:53:00.150Z,99348.63
2023-01-29T00:55:28.445Z,99343.56
2023-01-29T00:57:58.311Z,99337.59
2023-01-29T01:00:26.840Z,99362.13
2023-01-29T01:03:06.246Z,99350.28
2023-01-29T01:05:36.776Z,99357.91
2023-01-29T01:08:25.820Z,99344.38
2023-01-29T01:11:00.478Z,99345.22
2023-01-29T01:13:30.543Z,99344.38
2023-01-29T01:15:59.314Z,99352.81
2023-01-29T01:18:32.390Z,99341.84
2023-01-29T01:21:00.756Z,99341.84
2023-01-29T01:23:29.188Z,99347.75
2023-01-29T01:25:57.724Z,99340.97
2023-01-29T01:28:26.347Z,99338.44
2023-01-29T01:30:56.450Z,99343.53
2023-01-29T01:33:25.454Z,99344.38
2023-01-29T01:35:53.947Z,99344.34
2023-01-29T01:38:22.756Z,99337.53
2023-01-29T01:40:51.039Z,99348.56
2023-01-29T01:43:19.570Z,99347.66
2023-01-29T01:45:48.499Z,99339.22
2023-01-29T01:48:21.925Z,99335.81
2023-01-29T01:50:55.315Z,99333.28
2023-01-29T01:53:29.815Z,99332.44
2023-01-29T01:56:03.627Z,99334.13
2023-01-29T01:58:36.161Z,99339.19
2023-01-29T02:01:06.008Z,99333.28
2023-01-29T02:04:01.409Z,99334.13
2023-01-29T02:06:47.811Z,99334.94
2023-01-29T02:09:35.280Z,99339.19
2023-01-29T02:12:05.180Z,99343.41
2023-01-29T02:14:38.794Z,99354.41
2023-01-29T02:17:09.236Z,99351.06
2023-01-29T02:19:49.500Z,99339.19
2023-01-29T02:22:42.695Z,99336.56
2023-01-29T02:25:41.585Z,99345.06
2023-01-29T02:28:33.606Z,99347.59
2023-01-29T02:31:12.083Z,99341.69
2023-01-29T02:33:53.952Z,99347.56
2023-01-29T02:36:42.610Z,99341.66
2023-01-29T02:39:18.646Z,99346.69
2023-01-29T02:41:56.325Z,99340.78
2023-01-29T02:44:35.380Z,99348.34
2023-01-29T02:47:10.287Z,99341.59
2023-01-29T02:49:48.043Z,99346.66
2023-01-29T02:52:20.464Z,99346.69
2023-01-29T02:54:56.521Z,99342.50
2023-01-29T02:57:29.996Z,99337.38
2023-01-29T03:00:06.980Z,99329.78
2023-01-29T03:02:43.981Z,99338.25
2023-01-29T03:05:18.764Z,99329.81
2023-01-29T03:07:52.060Z,99331.47
2023-01-29T03:10:34.325Z,99336.53
2023-01-29T03:13:08.407Z,99345.81
2023-01-29T03:15:47.368Z,99341.59
2023-01-29T03:18:43.608Z,99333.94
2023-01-29T03:21:37.369Z,99338.22
2023-01-29T03:24:28.017Z,99334.81
2023-01-29T03:27:17.463Z,99328.91
2023-01-29T03:30:06.165Z,99336.47
2023-01-29T03:32:57.963Z,99338.16
2023-01-29T03:35:35.347Z,99331.41
2023-01-29T03:38:05.472Z,99335.63
2023-01-29T03:40:41.371Z,99331.38
2023-01-29T03:43:15.971Z,99327.16
2023-01-29T03:45:53.544Z,99328.81
2023-01-29T03:48:35.236Z,99332.19
2023-01-29T03:51:21.549Z,99344.03
2023-01-29T03:53:55.131Z,99335.56
2023-01-29T03:56:40.469Z,99333.84
2023-01-29T03:59:24.087Z,99339.75
2023-01-29T04:02:10.322Z,99334.69
2023-01-29T04:04:45.470Z,99333.84
2023-01-29T04:07:17.446Z,99336.38
2023-01-29T04:09:51.042Z,99350.75
2023-01-29T04:12:27.055Z,99344.84
2023-01-29T04:14:57.023Z,99336.34
2023-01-29T04:17:32.947Z,99347.34
2023-01-29T04:20:15.283Z,99347.34
2023-01-29T04:22:48.201Z,99342.25
2023-01-29T04:25:19.318Z,99349.91
2023-01-29T04:27:59.242Z,99343.13
2023-01-29T04:30:40.082Z,99344.88
2023-01-29T04:33:22.815Z,99349.91
2023-01-29T04:36:08.999Z,99354.94
2023-01-29T04:38:52.621Z,99351.53
2023-01-29T04:41:26.761Z,99345.59
2023-01-29T04:44:04.712Z,99347.28
2023-01-29T04:46:43.623Z,99341.38
2023-01-29T04:49:24.708Z,99338.00
2023-01-29T04:52:02.788Z,99335.47
2023-01-29T04:54:54.176Z,99342.25
2023-01-29T04:57:28.159Z,99338.03
2023-01-29T05:00:01.735Z,99339.69
2023-01-29T05:02:31.731Z,99338.00
2023-01-29T05:05:00.479Z,99339.63
2023-01-29T05:07:32.138Z,99332.00
2023-01-29T05:10:01.374Z,99343.88
2023-01-29T05:12:31.650Z,99343.84
2023-01-29T05:15:05.880Z,99338.78
2023-01-29T05:17:34.342Z,99339.63
2023-01-29T05:20:02.685Z,99338.78
2023-01-29T05:22:32.617Z,99337.03
2023-01-29T05:25:01.044Z,99340.47
2023-01-29T05:27:53.424Z,99351.41
2023-01-29T05:30:21.815Z,99348.03
2023-01-29T05:32:50.089Z,99352.25
2023-01-29T05:35:18.437Z,99353.97
2023-01-29T05:37:47.982Z,99348.91
2023-01-29T05:40:17.232Z,99344.69
2023-01-29T05:42:45.993Z,99345.53
2023-01-29T05:45:14.436Z,99342.16
2023-01-29T05:47:42.790Z,99336.28
2023-01-29T05:50:12.890Z,99324.41
2023-01-29T05:52:41.578Z,99315.09
2023-01-29T05:55:11.891Z,99306.66
2023-01-29T05:57:41.618Z,99303.28
2023-01-29T06:00:13.078Z,99304.97
2023-01-29T06:02:41.398Z,99307.50
2023-01-29T06:05:10.474Z,99314.28
2023-01-29T06:07:41.712Z,99313.44
2023-01-29T06:10:13.931Z,99316.88
2023-01-29T06:12:43.093Z,99316.03
2023-01-29T06:15:15.517Z,99313.44
2023-01-29T06:17:44.300Z,99319.38
2023-01-29T06:20:13.607Z,99319.34
2023-01-29T06:22:41.875Z,99320.97
2023-01-29T06:25:12.203Z,99321.81
2023-01-29T06:27:40.419Z,99325.22
2023-01-29T06:30:10.659Z,99324.38
2023-01-29T06:32:39.083Z,99318.44
2023-01-29T06:35:09.884Z,99330.28
2023-01-29T06:37:38.704Z,99323.47
2023-01-29T06:40:08.997Z,99328.56
2023-01-29T06:42:38.623Z,99324.31
2023-01-29T06:45:08.299Z,99332.78
2023-01-29T06:47:36.870Z,99326.88
2023-01-29T06:50:05.901Z,99328.53
2023-01-29T06:52:34.429Z,99323.44
2023-01-29T06:55:02.834Z,99328.53
2023-01-29T06:57:31.097Z,99336.13
2023-01-29T07:00:00.785Z,99340.38
2023-01-29T07:02:30.191Z,99336.13
2023-01-29T07:04:58.446Z,99339.50
2023-01-29T07:07:26.845Z,99342.03
2023-01-29T07:09:55.057Z,99336.13
2023-01-29T07:12:23.304Z,99335.22
2023-01-29T07:14:51.690Z,99328.53
2023-01-29T07:17:21.599Z,99330.16
2023-01-29T07:19:50.091Z,99346.22
2023-01-29T07:22:18.355Z,99347.06
2023-01-29T07:24:48.471Z,99349.59
2023-01-29T07:27:16.806Z,99352.13
2023-01-29T07:29:45.125Z,99354.63
2023-01-29T07:32:13.576Z,99354.63
2023-01-29T07:34:43.394Z,99353.78
2023-01-29T07:37:12.859Z,99361.38
2023-01-29T07:39:41.103Z,99366.50
2023-01-29T07:42:09.557Z,99369.03
2023-01-29T07:44:37.819Z,99363.13
2023-01-29T07:47:06.530Z,99365.66
2023-01-29T07:49:34.993Z,99368.19
2023-01-29T07:52:04.939Z,99374.16
2023-01-29T07:54:33.606Z,99380.03
2023-01-29T07:57:02.105Z,99376.63
2023-01-29T07:59:30.419Z,99386.78
2023-01-29T08:01:58.822Z,99384.25
2023-01-29T08:04:27.144Z,99377.53
2023-01-29T08:06:55.648Z,99382.59
2023-01-29T08:09:25.324Z,99371.63
2023-01-29T08:11:53.724Z,99372.47
2023-01-29T08:14:22.049Z,99381.78
2023-01-29T08:16:50.564Z,99380.94
2023-01-29T08:19:18.985Z,99383.47
2023-01-29T08:21:47.287Z,99385.97
2023-01-29T08:24:15.553Z,99386.84
2023-01-29T08:26:45.252Z,99398.69
2023-01-29T08:29:14.048Z,99394.50
2023-01-29T08:31:42.523Z,99394.56
2023-01-29T08:34:10.929Z,99392.84
2023-01-29T08:36:39.245Z,99396.28
2023-01-29T08:39:07.585Z,99397.97
2023-01-29T08:41:35.969Z,99398.84
2023-01-29T08:44:06.516Z,99403.09
2023-01-29T08:46:34.896Z,99403.13
2023-01-29T08:49:03.374Z,99408.19
2023-01-29T08:51:31.614Z,99409.03
2023-01-29T08:54:00.206Z,99405.66
2023-01-29T08:56:28.535Z,99408.19
2023-01-29T08:58:58.327Z,99406.50
2023-01-29T09:01:28.691Z,99402.31
2023-01-29T09:03:56.993Z,99405.69
2023-01-29T09:06:25.351Z,99408.28
2023-01-29T09:08:54.062Z,99407.47
2023-01-29T09:11:22.471Z,99411.69
2023-01-29T09:13:50.825Z,99417.66
2023-01-29T09:16:19.106Z,99421.03
2023-01-29T09:18:48.687Z,99419.38
2023-01-29T09:21:16.948Z,99409.22
2023-01-29T09:23:45.250Z,99411.78
2023-01-29T09:26:13.648Z,99421.13
2023-01-29T09:28:41.929Z,99417.72
2023-01-29T09:31:10.242Z,99428.75
2023-01-29T09:33:38.643Z,99433.84
2023-01-29T09:36:09.515Z,99429.66
2023-01-29T09:38:37.770Z,99427.09
2023-01-29T09:41:21.462Z,99423.72
2023-01-29T09:43:54.731Z,99412.75
2023-01-29T09:46:29.702Z,99408.53
2023-01-29T09:49:02.543Z,99412.78
2023-01-29T09:51:39.757Z,99403.53
2023-01-29T09:54:20.050Z,99391.69
2023-01-29T09:56:51.978Z,99375.63
2023-01-29T09:59:23.838Z,99363.81
2023-01-29T10:02:05.872Z,99366.41
2023-01-29T10:05:07.029Z,99362.19
2023-01-29T10:08:08.649Z,99354.66
2023-01-29T10:10:49.753Z,99349.63
2023-01-29T10:13:30.171Z,99335.28
2023-01-29T10:16:20.301Z,99339.50
2023-01-29T10:19:20.039Z,99333.59
2023-01-29T10:22:24.473Z,99336.16
2023-01-29T10:24:58.269Z,99343.75
2023-01-29T10:27:35.617Z,99353.88
2023-01-29T10:30:10.011Z,99358.97
2023-01-29T10:32:39.440Z,99359.00
2023-01-29T10:35:25.339Z,99353.94
2023-01-29T10:37:55.073Z,99341.22
2023-01-29T10:40:33.580Z,99345.50
2023-01-29T10:43:07.778Z,99353.09
2023-01-29T10:45:45.529Z,99356.50
2023-01-29T10:48:49.662Z,99358.25
2023-01-29T10:51:36.176Z,99348.94
2023-01-29T10:54:22.784Z,99351.50
2023-01-29T10:57:08.341Z,99343.91
2023-01-29T10:59:54.263Z,99348.16
2023-01-29T11:02:23.110Z,99340.56
2023-01-29T11:04:51.550Z,99344.78
2023-01-29T11:07:23.179Z,99342.28
2023-01-29T11:09:58.450Z,99354.16
2023-01-29T11:12:32.004Z,99346.53
2023-01-29T11:15:05.640Z,99339.75
2023-01-29T11:17:34.053Z,99342.34
2023-01-29T11:20:02.439Z,99338.09
2023-01-29T11:22:32.090Z,99337.22
2023-01-29T11:25:17.583Z,99333.84
2023-01-29T11:27:48.086Z,99319.41
2023-01-29T11:30:23.305Z,99307.59
2023-01-29T11:32:59.192Z,99296.59
2023-01-29T11:35:30.119Z,99305.91
2023-01-29T11:38:10.759Z,99303.41
2023-01-29T11:40:41.348Z,99298.31
2023-01-29T11:43:30.797Z,99293.25
2023-01-29T11:46:03.178Z,99294.94
2023-01-29T11:48:42.009Z,99296.66
2023-01-29T11:51:14.035Z,99297.50
2023-01-29T11:53:45.760Z,99300.06
2023-01-29T11:56:25.772Z,99297.53
2023-01-29T11:58:57.706Z,99287.34
2023-01-29T12:01:34.468Z,99283.09
2023-01-29T12:04:04.127Z,99272.06
2023-01-29T12:06:36.515Z,99262.75
2023-01-29T12:09:14.451Z,99265.28
2023-01-29T12:11:44.577Z,99253.44
2023-01-29T12:14:30.005Z,99251.72
2023-01-29T12:17:03.139Z,99246.63
2023-01-29T12:19:39.372Z,99228.81
2023-01-29T12:22:16.588Z,99229.63
2023-01-29T12:24:54.967Z,99226.22
2023-01-29T12:27:29.717Z,99219.41
2023-01-29T12:30:06.269Z,99206.63
2023-01-29T12:32:45.677Z,99189.63
2023-01-29T12:35:22.517Z,99192.94
2023-01-29T12:37:57.606Z,99183.56
2023-01-29T12:40:28.087Z,99182.69
2023-01-29T12:43:03.764Z,99181.75
2023-01-29T12:45:37.433Z,99173.19
2023-01-29T12:48:10.321Z,99170.63
2023-01-29T12:50:39.714Z,99166.34
2023-01-29T12:53:24.261Z,99169.72
2023-01-29T12:55:56.375Z,99160.34
2023-01-29T12:58:30.165Z,99156.88
2023-01-29T13:01:06.349Z,99154.25
2023-01-29T13:03:40.580Z,99151.69
2023-01-29T13:06:13.901Z,99151.72
2023-01-29T13:08:46.881Z,99146.53
2023-01-29T13:11:22.227Z,99143.91
2023-01-29T13:13:55.465Z,99131.91
2023-01-29T13:16:31.520Z,99132.66
2023-01-29T13:19:04.043Z,99139.44
2023-01-29T13:21:39.080Z,99133.44
2023-01-29T13:24:13.097Z,99135.00
2023-01-29T13:26:42.398Z,99129.84
2023-01-29T13:29:24.150Z,99131.50
2023-01-29T13:31:55.643Z,99131.56
2023-01-29T13:34:28.377Z,99133.25
2023-01-29T13:37:00.519Z,99127.94
2023-01-29T13:39:32.348Z,99127.97
2023-01-29T13:42:02.590Z,99134.69
2023-01-29T13:44:39.090Z,99132.94
2023-01-29T13:47:11.617Z,99129.53
2023-01-29T13:49:43.697Z,99129.50
2023-01-29T13:52:35.755Z,99135.56
2023-01-29T13:55:07.394Z,99144.09
2023-01-29T13:57:56.552Z,99139.88
2023-01-29T14:00:59.144Z,99139.97
2023-01-29T14:04:03.657Z,99138.31
2023-01-29T14:06:42.992Z,99145.25
2023-01-29T14:10:06.040Z,99137.63
2023-01-29T14:12:47.232Z,99127.47
2023-01-29T14:15:39.257Z,99127.50
2023-01-29T14:18:22.389Z,99138.56
2023-01-29T14:21:02.360Z,99131.72
2023-01-29T14:23:47.763Z,99131.81
2023-01-29T14:26:31.348Z,99130.13
2023-01-29T14:29:08.555Z,99121.66
2023-01-29T14:31:45.909Z,99119.16
2023-01-29T14:34:26.909Z,99121.66
2023-01-29T14:36:59.251Z,99120.75
2023-01-29T14:39:36.976Z,99113.00
2023-01-29T14:42:21.992Z,99116.31
2023-01-29T14:45:02.506Z,99120.44
2023-01-29T14:48:14.455Z,99113.53
2023-01-29T14:50:59.158Z,99115.16
2023-01-29T14:53:45.755Z,99104.13
2023-01-29T14:56:18.813Z,99110.00
2023-01-29T14:58:51.260Z,99101.44
2023-01-29T15:01:25.057Z,99097.97
2023-01-29T15:04:05.309Z,99112.25
2023-01-29T15:06:42.440Z,99111.41
2023-01-29T15:09:16.575Z,99118.22
2023-01-29T15:11:51.438Z,99120.69
2023-01-29T15:14:30.080Z,99123.69
2023-01-29T15:17:18.861Z,99121.75
2023-01-29T15:19:49.548Z,99116.44
2023-01-29T15:22:20.171Z,99116.97
2023-01-29T15:25:07.265Z,99111.50
2023-01-29T15:27:36.175Z,99114.28
2023-01-29T15:30:09.052Z,99109.16
2023-01-29T15:32:40.859Z,99105.63
2023-01-29T15:35:11.900Z,99104.56
2023-01-29T15:37:41.294Z,99104.69
2023-01-29T15:40:17.954Z,99112.69
2023-01-29T15:42:48.917Z,99117.03
2023-01-29T15:45:31.047Z,99112.88
2023-01-29T15:48:08.519Z,99123.13
2023-01-29T15:50:41.335Z,99119.69
2023-01-29T15:53:15.468Z,99121.56
2023-01-29T15:55:45.994Z,99109.72
2023-01-29T15:58:19.089Z,99107.50
2023-01-29T16:00:51.930Z,99112.63
2023-01-29T16:03:24.773Z,99111.28
2023-01-29T16:05:54.033Z,99110.50
2023-01-29T16:08:23.511Z,99110.56
2023-01-29T16:10:57.451Z,99099.72
2023-01-29T16:13:29.463Z,99104.97
2023-01-29T16:16:00.963Z,99106.78
2023-01-29T16:18:35.164Z,99101.78
2023-01-29T16:21:09.031Z,99100.19
2023-01-29T16:23:43.393Z,99104.53
2023-01-29T16:26:20.203Z,99096.97
2023-01-29T16:28:49.361Z,99105.50
2023-01-29T16:31:25.217Z,99107.22
2023-01-29T16:33:53.903Z,99108.94
2023-01-29T16:36:25.555Z,99114.94
2023-01-29T16:38:57.814Z,99117.50
2023-01-29T16:41:36.156Z,99123.41
2023-01-29T16:44:07.709Z,99122.53
2023-01-29T16:46:38.332Z,99117.50
2023-01-29T16:49:36.880Z,99127.81
2023-01-29T16:52:19.514Z,99129.50
2023-01-29T16:54:47.985Z,99127.78
2023-01-29T16:57:21.452Z,99132.13
2023-01-29T16:59:50.971Z,99133.03
2023-01-29T17:02:25.888Z,99129.69
2023-01-29T17:04:58.701Z,99133.09
2023-01-29T17:07:27.509Z,99144.19
2023-01-29T17:10:00.186Z,99130.53
2023-01-29T17:12:32.680Z,99139.09
2023-01-29T17:15:03.467Z,99145.09
2023-01-29T17:17:33.573Z,99142.63
2023-01-29T17:20:14.728Z,99135.84
2023-01-29T17:22:44.677Z,99136.78
2023-01-29T17:25:17.026Z,99134.28
2023-01-29T17:27:51.651Z,99135.19
2023-01-29T17:30:22.294Z,99133.53
2023-01-29T17:32:50.768Z,99123.38
2023-01-29T17:35:19.429Z,99121.66
2023-01-29T17:37:48.274Z,99134.44
2023-01-29T17:40:32.508Z,99123.41
2023-01-29T17:43:02.317Z,99117.50
2023-01-29T17:45:30.731Z,99122.66
2023-01-29T17:47:59.567Z,99121.78
2023-01-29T17:50:31.696Z,99117.59
2023-01-29T17:53:00.112Z,99124.34
2023-01-29T17:55:28.432Z,99117.63
2023-01-29T17:57:56.903Z,99121.00
2023-01-29T18:00:26.635Z,99132.03
2023-01-29T18:02:55.019Z,99114.22
2023-01-29T18:05:23.307Z,99121.84
2023-01-29T18:07:54.595Z,99112.56
2023-01-29T18:10:25.286Z,99111.72
2023-01-29T18:12:53.585Z,99115.13
2023-01-29T18:15:22.084Z,99118.50
2023-01-29T18:17:52.930Z,99117.69
2023-01-29T18:20:25.765Z,99114.28
2023-01-29T18:22:55.136Z,99114.31
2023-01-29T18:25:24.917Z,99119.38
2023-01-29T18:27:54.382Z,99109.19
2023-01-29T18:30:22.917Z,99112.63
2023-01-29T18:32:53.315Z,99109.25
2023-01-29T18:35:22.454Z,99113.50
2023-01-29T18:37:51.454Z,99108.47
2023-01-29T18:40:20.155Z,99110.13
2023-01-29T18:42:48.732Z,99107.59
2023-01-29T18:45:17.391Z,99106.72
2023-01-29T18:47:46.032Z,99110.97
2023-01-29T18:50:15.746Z,99110.16
2023-01-29T18:52:45.361Z,99097.44
2023-01-29T18:55:13.917Z,99107.63
2023-01-29T18:58:28.095Z,99114.41
2023-01-29T19:00:30.723Z,99112.72
2023-01-29T19:02:59.148Z,99117.78
2023-01-29T19:05:28.962Z,99118.63
2023-01-29T19:07:57.499Z,99119.50
2023-01-29T19:10:26.016Z,99125.41
2023-01-29T19:12:54.386Z,99135.59
2023-01-29T19:15:23.036Z,99133.06
2023-01-29T19:17:52.054Z,99133.91
2023-01-29T19:20:20.944Z,99141.53
2023-01-29T19:22:50.881Z,99138.13
2023-01-29T19:25:20.484Z,99139.84
2023-01-29T19:27:48.986Z,99141.53
2023-01-29T19:30:18.056Z,99136.44
2023-01-29T19:32:46.553Z,99145.75
2023-01-29T19:35:15.873Z,99141.53
2023-01-29T19:37:44.642Z,99141.53
2023-01-29T19:40:14.961Z,99144.91
2023-01-29T19:42:43.562Z,99144.91
2023-01-29T19:45:12.222Z,99144.03
2023-01-29T19:47:41.901Z,99143.22
2023-01-29T19:50:12.566Z,99136.44
2023-01-29T19:52:56.580Z,99144.03
2023-01-29T19:55:26.692Z,99146.59
2023-01-29T19:57:58.367Z,99149.97
2023-01-29T20:00:26.882Z,99146.56
2023-01-29T20:02:55.207Z,99134.72
2023-01-29T20:05:24.029Z,99147.38
2023-01-29T20:07:52.338Z,99133.00
2023-01-29T20:10:21.244Z,99138.91
2023-01-29T20:12:50.892Z,99134.69
2023-01-29T20:15:19.372Z,99132.16
2023-01-29T20:17:47.745Z,99133.84
2023-01-29T20:20:17.605Z,99131.31
2023-01-29T20:22:46.256Z,99130.44
2023-01-29T20:25:16.759Z,99127.06
2023-01-29T20:27:45.286Z,99132.13
2023-01-29T20:30:19.378Z,99129.56
2023-01-29T20:32:50.737Z,99122.78
2023-01-29T20:35:19.168Z,99115.16
2023-01-29T20:37:47.566Z,99110.91
2023-01-29T20:40:16.709Z,99105.78
2023-01-29T20:42:45.736Z,99103.25
2023-01-29T20:45:16.247Z,99095.63
2023-01-29T20:47:44.838Z,99091.38
2023-01-29T20:50:15.707Z,99082.88
2023-01-29T20:52:44.682Z,99086.25
2023-01-29T20:55:14.656Z,99084.50
2023-01-29T20:57:43.461Z,99079.44
2023-01-29T21:00:17.630Z,99070.09
2023-01-29T21:02:46.515Z,99070.06
2023-01-29T21:05:15.334Z,99073.47
2023-01-29T21:07:43.791Z,99064.97
2023-01-29T21:10:13.107Z,99064.16
2023-01-29T21:12:41.696Z,99063.31
2023-01-29T21:15:11.852Z,99071.75
2023-01-29T21:17:41.730Z,99065.81
2023-01-29T21:20:12.204Z,99066.66
2023-01-29T21:22:42.436Z,99073.41
2023-01-29T21:25:11.886Z,99066.69
2023-01-29T21:27:40.222Z,99074.28
2023-01-29T21:30:10.479Z,99075.09
2023-01-29T21:32:38.932Z,99076.78
2023-01-29T21:35:10.187Z,99084.41
2023-01-29T21:37:38.870Z,99083.56
2023-01-29T21:40:09.956Z,99084.41
2023-01-29T21:42:56.096Z,99084.38
2023-01-29T21:45:24.666Z,99087.75
2023-01-29T21:47:53.013Z,99091.94
2023-01-29T21:50:23.345Z,99083.47
2023-01-29T21:52:51.705Z,99078.38
2023-01-29T21:55:20.136Z,99075.84
2023-01-29T21:57:48.692Z,99081.75
2023-01-29T22:00:19.117Z,99068.25
2023-01-29T22:02:47.656Z,99067.38
2023-01-29T22:05:19.766Z,99072.38
2023-01-29T22:07:50.689Z,99081.66
2023-01-29T22:10:20.620Z,99087.59
2023-01-29T22:12:49.445Z,99076.59
2023-01-29T22:15:18.009Z,99072.38
2023-01-29T22:17:49.463Z,99077.47
2023-01-29T22:20:18.942Z,99076.63
2023-01-29T22:22:48.857Z,99075.78
2023-01-29T22:25:19.930Z,99082.53
2023-01-29T22:27:48.310Z,99075.75
2023-01-29T22:30:17.347Z,99075.69
2023-01-29T22:32:45.973Z,99075.66
2023-01-29T22:35:14.259Z,99075.63
2023-01-29T22:37:42.695Z,99068.88
2023-01-29T22:40:14.219Z,99063.78
2023-01-29T22:42:42.689Z,99064.63
2023-01-29T22:45:12.163Z,99049.41
2023-01-29T22:47:40.593Z,99046.00
2023-01-29T22:50:10.203Z,99022.34
2023-01-29T22:52:42.746Z,99023.16
2023-01-29T22:55:14.298Z,99020.59
2023-01-29T22:57:42.568Z,99015.53
2023-01-29T23:00:15.202Z,98994.41
2023-01-29T23:02:43.486Z,98997.75
2023-01-29T23:05:11.822Z,98988.47
2023-01-29T23:07:40.206Z,98980.84
2023-01-29T23:10:11.135Z,98971.56
2023-01-29T23:12:40.905Z,98964.75
2023-01-29T23:15:10.075Z,98963.06
2023-01-29T23:17:39.564Z,98981.63
2023-01-29T23:20:09.783Z,98982.50
2023-01-29T23:22:38.551Z,98969.84
2023-01-29T23:25:08.239Z,98966.47
2023-01-29T23:27:35.719Z,98969.84
2023-01-29T23:30:07.529Z,98969.00
2023-01-29T23:32:36.272Z,98947.88
2023-01-29T23:35:04.786Z,98957.97
2023-01-29T23:37:33.102Z,98960.50
2023-01-29T23:40:01.642Z,98968.94
2023-01-29T23:42:29.881Z,98967.25
2023-01-29T23:44:58.160Z,98973.16
2023-01-29T23:47:27.785Z,98956.28
2023-01-29T23:49:58.673Z,98951.22
2023-01-29T23:52:27.213Z,98946.16
2023-01-29T23:54:55.478Z,98940.25
2023-01-29T23:57:23.995Z,98933.50
2023-01-29T23:59:52.169Z,98928.44
